Buffalo Narrows, Buffalo Narrows Airport (CYVT)

NameBuffalo Narrows Airport
CityBuffalo Narrows
CountryCanada
ICAOCYVT
IATAYVT
Altitude434 m
CoordinatesGoogle Map
Live Air TrafficLiveATC.net
METARCYVT 230000Z 20009KT 15SM FEW020 FEW080 BKN100 BKN150 BKN250 17/13 A2984 RMK SC1AC2AC3AC2CI1 SC TR CI TR SLP114 DENSITY ALT 2100FT
2019-08-23 00:00:00 Wind: South (200°) 4.63 m/s - Visibility: 24140.1 m - Temperature: 17 °C - Dew point: 13 °C - Humidity: 77.5% - Pressure: 1010.5 hPa
Statistics

The table below shows the detailed information of all flights to/from Buffalo Narrows, Buffalo Narrows Airport (CYVT).